• Join FlightAware (Why Join?)
  • Login
  • US Flag 
03:26AM EDT


 

Airport Tracker/Info


-or-


 

Live Flight TrackerFlight Track Log ✈ N600TR ✈ 15-Aug-2013 ✈ KATL - KSAV

Flight Track Log - Related Links

Times and Time Zones

All times are in EDT time to prevent confusion due to time zone crossing. See the N600TR flight status page for this flight to view local times or setup timezone preferences in your user account.

Time Position Orientation Groundspeed Altitude Reporting Facility
EDT Latitude Longitude Course Direction KTS MPH feet Rate Location/Type
02:03PM 33.6333 -84.4000 128° Southeast 152 175 2,100  Level Atlanta TRACON
02:04PM 33.6167 -84.3333 107° East 232 267 4,100 1,800 Climbing Atlanta TRACON
02:05PM 33.5833 -84.2667 121° Southeast 272 313 5,800 1,920 Climbing Atlanta TRACON
02:06PM 33.5167 -84.2500 168° South 289 333 8,000 2,040 Climbing Atlanta TRACON
02:07PM 33.1352 -84.2249 163° South  Level FlightAware Approximate
02:08PM 33.0461 -84.1690 128° Southeast  Level FlightAware Approximate
02:08PM 33.3786 -84.2428 177° South 293 337 11,300  Level Atlanta Center
02:09PM 33.2828 -84.2303 174° South 321 369 12,300 1,560 Climbing Atlanta Center
02:10PM 33.1806 -84.2200 175° South 358 412 14,500 1,920 Climbing Atlanta Center
02:11PM 33.0969 -84.1431 142° Southeast 358 412 16,200 1,620 Climbing Atlanta Center
02:12PM 33.0261 -84.0439 130° Southeast 377 434 17,800 1,620 Climbing Atlanta Center
02:13PM 32.9531 -83.9397 130° Southeast 396 456 19,500 1,440 Climbing Atlanta Center
02:14PM 32.8778 -83.8361 131° Southeast 408 470 20,700 1,200 Climbing Atlanta Center
02:15PM 32.7983 -83.7397 134° Southeast 414 476 22,000 1,080 Climbing Atlanta Center
02:16PM 32.7122 -83.6339 134° Southeast 419 482 22,900 480 Climbing Atlanta Center
02:17PM 32.6722 -83.4936 109° East 429 494 23,000  Climbing Atlanta Center
02:18PM 32.6381 -83.3506 106° East 435 501 23,000  Level Atlanta Center
02:19PM 32.5706 -83.2303 124° Southeast 434 499 23,000  Level Atlanta Center
02:20PM 32.4906 -83.1228 131° Southeast 426 490 23,000  Level Atlanta Center
02:21PM 32.4122 -83.0103 129° Southeast 437 503 23,000  Level Atlanta Center
02:22PM 32.3631 -82.8733 113° Southeast 442 509 23,000 -240 Level Atlanta Center
02:24PM 32.2828 -82.5217 105° East 457 526 22,300 -900 Descending Jacksonville Center
02:25PM 32.2614 -82.3767 100° East 452 520 19,900 -2,400 Descending Jacksonville Center
02:26PM 32.2442 -82.2564 100° East 429 494 17,600 -2,640 Descending Jacksonville Center
02:27PM 32.2392 -82.1092 92° East 414 476 14,700 -2,700 Descending Jacksonville Center
02:28PM 32.2364 -81.9814 91° East 392 451 12,300 -2,040 Descending Jacksonville Center
02:29PM 32.2314 -81.8683 93° East 381 438 10,700 -1,380 Descending Jacksonville Center
02:30PM 32.2239 -81.7506 94° East 335 386 9,600 -1,320 Descending Jacksonville Center
02:31PM 32.2106 -81.6525 99° East 308 354 8,100 -1,620 Descending Jacksonville Center
02:32PM 32.1806 -81.5647 112° Southeast 286 329 6,400 -1,800 Descending Jacksonville Center
02:33PM 32.1419 -81.4842 119° Southeast 281 323 4,600 -1,680 Descending Jacksonville Center
02:34PM 32.1306 -81.4058 100° East 267 307 3,100 -1,440 Descending Jacksonville Center
02:35PM 32.1297 -81.3347 91° East 239 275 1,800 -1,200 Descending Jacksonville Center
02:36PM 32.1269 -81.2783 93° East 166 191 800 -900 Descending Jacksonville Center
02:37PM 32.1286 -81.2317 88° East 139 160 100 -720 Descending Jacksonville Center
02:39PM 32.1167 -81.2000 North  Level FlightAware Approximate
02:46PM 32.1276 -81.2021 North  Level Estimated
02:47PM 32.1276 -81.2021 North  Level Estimated
02:48PM 32.1276 -81.2021 North  Level Estimated
02:49PM 32.1276 -81.2021 North  Level Estimated